Time;durP1;ratioP1;P1;durP2;ratioP2;P2;SDS_P1;SDS_P2;PMS_P1;PMS_P2;Temp;Humidity;BMP_temperature;BMP_pressure;BME280_temperature;BME280_humidity;BME280_pressure;Samples;Min_cycle;Max_cycle;Signal;HPM_P1;HPM_P2
2022/04/25 00:01:13;;;;;;;;;;;;;;;13.96;61.46;99599.94;4921580;28;99274;-62
2022/04/25 00:03:38;;;;;;;;;;;;;;;13.94;61.74;99599.41;4921147;28;97968;-62
2022/04/25 00:06:05;;;;;;;;;;;;;;;13.94;61.72;99604.03;4920594;28;121314;-67
2022/04/25 00:08:31;;;;;;;;;;;;;;;13.94;61.47;99604.03;4920446;28;112408;-63
2022/04/25 00:10:57;;;;;;;;;;;;;;;13.94;61.52;99599.41;4935668;28;124782;-63
2022/04/25 00:13:23;;;;;;;;;;;;;;;13.93;61.71;99595.13;4921025;28;97960;-67
2022/04/25 00:15:48;;;;;;;;;;;;;;;13.92;61.61;99598.94;4920123;28;108649;-67
2022/04/25 00:18:14;;;;;;;;;;;;;;;13.92;61.74;99600.88;4919394;28;127450;-67
2022/04/25 00:20:40;;;;;;;;;;;;;;;13.92;61.51;99607.06;4932589;28;127657;-67
2022/04/25 00:23:06;;;;;;;;;;;;;;;13.91;61.85;99608.19;4939702;28;126996;-62
2022/04/25 00:25:33;;;;;;;;;;;;;;;13.90;61.74;99612.00;4934240;28;116410;-62
2022/04/25 00:27:59;;;;;;;;;;;;;;;13.90;61.83;99612.00;4918766;28;98250;-62
2022/04/25 00:30:25;;;;;;;;;;;;;;;13.90;61.87;99603.06;4920722;28;98433;-63
2022/04/25 00:32:51;;;;;;;;;;;;;;;13.89;61.82;99607.69;4920967;28;98419;-62
2022/04/25 00:35:17;;;;;;;;;;;;;;;13.88;61.77;99606.09;4920229;28;114587;-68
2022/04/25 00:37:46;;;;;;;;;;;;;;;13.88;61.67;99603.38;4920420;28;104379;-62
2022/04/25 00:40:11;;;;;;;;;;;;;;;13.88;61.89;99610.72;4921171;28;98389;-66
2022/04/25 00:42:37;;;;;;;;;;;;;;;13.87;61.77;99603.69;4917397;28;128247;-62
2022/04/25 00:45:04;;;;;;;;;;;;;;;13.85;61.81;99603.22;4919566;28;120148;-68
2022/04/25 00:47:29;;;;;;;;;;;;;;;13.85;61.92;99612.13;4918067;28;126382;-67
2022/04/25 00:49:55;;;;;;;;;;;;;;;13.85;61.96;99611.34;4918374;28;119315;-62
2022/04/25 00:52:21;;;;;;;;;;;;;;;13.84;61.98;99605.13;4920050;28;127993;-67
2022/04/25 00:54:48;;;;;;;;;;;;;;;13.83;61.70;99602.69;4919780;28;122651;-62
2022/04/25 00:57:14;;;;;;;;;;;;;;;13.83;61.92;99603.50;4916595;28;98882;-62
2022/04/25 00:59:40;;;;;;;;;;;;;;;13.83;62.14;99610.81;4918169;28;126933;-67
2022/04/25 01:02:06;;;;;;;;;;;;;;;13.82;62.14;99614.66;4920243;28;127413;-67
2022/04/25 01:04:32;;;;;;;;;;;;;;;13.81;62.01;99615.78;4920650;28;97841;-62
2022/04/25 01:06:58;;;;;;;;;;;;;;;13.80;62.09;99623.09;4920271;28;98215;-63
2022/04/25 01:09:25;;;;;;;;;;;;;;;13.80;62.05;99616.88;4918283;28;128110;-67
2022/04/25 01:11:52;;;;;;;;;;;;;;;13.80;62.13;99611.47;4920731;28;97970;-62
2022/04/25 01:14:19;;;;;;;;;;;;;;;13.79;62.05;99620.69;4920214;28;98065;-67
2022/04/25 01:16:45;;;;;;;;;;;;;;;13.78;62.25;99622.59;4920056;28;98343;-66
2022/04/25 01:19:11;;;;;;;;;;;;;;;13.78;62.04;99619.88;4918882;28;128577;-67
2022/04/25 01:22:05;;;;;;;;;;;;;;;13.79;62.31;99623.38;4899898;28;126568;-66
2022/04/25 01:27:16;;;;;;;;;;;;;;;13.76;62.32;99616.69;4915399;28;98014;-67
2022/04/25 01:29:42;;;;;;;;;;;;;;;13.74;62.17;99625.13;4918044;28;127483;-66
2022/04/25 01:32:08;;;;;;;;;;;;;;;13.75;62.33;99615.06;4920268;28;117054;-66
2022/04/25 01:34:37;;;;;;;;;;;;;;;13.74;62.44;99621.63;4918492;28;121772;-66
2022/04/25 01:37:14;;;;;;;;;;;;;;;13.73;62.26;99620.81;4920518;28;98568;-66
2022/04/25 01:39:45;;;;;;;;;;;;;;;13.74;62.38;99624.31;4919056;28;98359;-62
2022/04/25 01:42:11;;;;;;;;;;;;;;;13.72;62.38;99621.13;4920143;28;98428;-63
2022/04/25 01:44:37;;;;;;;;;;;;;;;13.72;62.49;99619.22;4920277;28;97986;-62
2022/04/25 01:47:04;;;;;;;;;;;;;;;13.72;62.59;99621.94;4916521;28;128042;-67
2022/04/25 01:49:30;;;;;;;;;;;;;;;13.71;62.57;99623.00;4932078;28;126224;-67
2022/04/25 01:51:56;;;;;;;;;;;;;;;13.71;62.58;99614.09;4920646;28;98123;-67
2022/04/25 01:54:26;;;;;;;;;;;;;;;13.71;62.71;99614.09;4919084;28;99784;-62
2022/04/25 01:56:55;;;;;;;;;;;;;;;13.69;62.41;99609.00;4920742;28;98426;-66
2022/04/25 01:59:21;;;;;;;;;;;;;;;13.69;62.28;99616.31;4920329;28;98677;-62
2022/04/25 02:01:47;;;;;;;;;;;;;;;13.68;62.55;99617.44;4922944;28;127641;-66
2022/04/25 02:04:13;;;;;;;;;;;;;;;13.67;62.51;99615.81;4922554;28;99285;-66
2022/04/25 02:06:39;;;;;;;;;;;;;;;13.68;62.94;99614.72;4923320;28;98370;-62
2022/04/25 02:09:05;;;;;;;;;;;;;;;13.67;62.82;99615.81;4921736;28;127095;-63
2022/04/25 02:11:31;;;;;;;;;;;;;;;13.66;62.75;99619.66;4921724;28;128392;-67
2022/04/25 02:13:57;;;;;;;;;;;;;;;13.65;62.64;99624.25;4922411;28;98212;-62
2022/04/25 02:16:24;;;;;;;;;;;;;;;13.64;62.61;99617.25;4923136;28;112304;-67
2022/04/25 02:18:50;;;;;;;;;;;;;;;13.64;62.65;99619.16;4922301;28;123894;-65
2022/04/25 02:21:16;;;;;;;;;;;;;;;13.63;62.58;99612.94;4939307;28;124527;-66
2022/04/25 02:23:42;;;;;;;;;;;;;;;13.62;62.69;99618.66;4940603;28;121821;-67
2022/04/25 02:26:08;;;;;;;;;;;;;;;13.61;62.87;99617.06;4936114;28;99466;-62
2022/04/25 02:28:35;;;;;;;;;;;;;;;13.61;62.59;99617.06;4922052;28;99063;-62
2022/04/25 02:31:01;;;;;;;;;;;;;;;13.59;62.82;99627.41;4922390;28;98110;-62
2022/04/25 02:33:27;;;;;;;;;;;;;;;13.59;62.79;99632.81;4920651;28;98159;-62
2022/04/25 02:35:54;;;;;;;;;;;;;;;13.57;62.78;99635.84;4921847;28;129439;-62
2022/04/25 02:38:20;;;;;;;;;;;;;;;13.57;62.73;99641.25;4921823;28;98693;-62
2022/04/25 02:40:46;;;;;;;;;;;;;;;13.57;62.80;99643.16;4922117;28;125402;-61
2022/04/25 02:43:12;;;;;;;;;;;;;;;13.56;62.85;99641.53;4921394;28;121006;-67
2022/04/25 02:45:38;;;;;;;;;;;;;;;13.55;62.92;99648.06;4921917;28;99633;-66
2022/04/25 02:48:04;;;;;;;;;;;;;;;13.54;62.99;99654.59;4920113;28;122829;-62
2022/04/25 02:50:30;;;;;;;;;;;;;;;13.53;62.96;99647.59;4921132;28;125126;-67
2022/04/25 02:52:56;;;;;;;;;;;;;;;13.53;62.80;99650.28;4922059;28;103988;-62
2022/04/25 02:55:22;;;;;;;;;;;;;;;13.52;63.15;99644.09;4923238;28;98252;-66
2022/04/25 02:57:47;;;;;;;;;;;;;;;13.51;62.92;99639.75;4921474;28;128450;-67
2022/04/25 03:00:14;;;;;;;;;;;;;;;13.50;62.94;99624.63;4920869;28;127140;-61
2022/04/25 03:02:40;;;;;;;;;;;;;;;13.49;63.19;99617.63;4921276;28;118904;-61
2022/04/25 03:05:06;;;;;;;;;;;;;;;13.48;63.16;99627.66;4922219;28;98481;-66
2022/04/25 03:07:32;;;;;;;;;;;;;;;13.47;63.09;99646.88;4921746;28;125964;-66
2022/04/25 03:09:58;;;;;;;;;;;;;;;13.46;63.14;99648.78;4920615;28;126624;-66
2022/04/25 03:12:25;;;;;;;;;;;;;;;13.46;62.99;99653.41;4920802;28;120564;-61
2022/04/25 03:14:51;;;;;;;;;;;;;;;13.44;63.01;99656.44;4922904;28;98455;-66
2022/04/25 03:17:17;;;;;;;;;;;;;;;13.44;62.82;99656.44;4922669;28;99034;-65
2022/04/25 03:19:44;;;;;;;;;;;;;;;13.43;62.86;99662.94;4925233;28;102254;-62
2022/04/25 03:22:10;;;;;;;;;;;;;;;13.42;63.14;99663.25;4941962;28;98393;-62
2022/04/25 03:24:36;;;;;;;;;;;;;;;13.41;63.09;99665.16;4940268;28;128864;-67
2022/04/25 03:27:02;;;;;;;;;;;;;;;13.40;63.23;99666.28;4938017;28;98518;-65
2022/04/25 03:29:28;;;;;;;;;;;;;;;13.39;63.10;99672.78;4918522;28;120444;-62
2022/04/25 03:31:53;;;;;;;;;;;;;;;13.38;63.21;99668.47;4921466;28;122511;-67
2022/04/25 03:34:20;;;;;;;;;;;;;;;13.37;63.04;99666.88;4920914;28;109321;-65
2022/04/25 03:36:47;;;;;;;;;;;;;;;13.36;63.17;99673.41;4921573;28;99093;-65
2022/04/25 03:39:13;;;;;;;;;;;;;;;13.35;63.26;99679.91;4921137;28;99658;-67
2022/04/25 03:41:38;;;;;;;;;;;;;;;13.34;63.23;99677.50;4921929;28;97733;-62
2022/04/25 03:44:04;;;;;;;;;;;;;;;13.33;63.33;99684.84;4919992;28;129424;-65
2022/04/25 03:46:31;;;;;;;;;;;;;;;13.32;63.20;99680.50;4920569;28;124817;-62
2022/04/25 03:48:56;;;;;;;;;;;;;;;13.31;63.34;99692.44;4920669;28;98535;-62
2022/04/25 03:51:23;;;;;;;;;;;;;;;13.30;63.10;99690.06;4921096;28;123194;-67
2022/04/25 03:53:49;;;;;;;;;;;;;;;13.29;62.95;99694.66;4920719;28;125868;-61
2022/04/25 03:59:00;;;;;;;;;;;;;;;13.28;63.64;99706.56;4919809;28;97873;-62
2022/04/25 04:01:26;;;;;;;;;;;;;;;13.26;63.24;99696.06;4921639;28;98054;-62
2022/04/25 04:03:51;;;;;;;;;;;;;;;13.26;63.21;99703.38;4920004;28;120300;-62
2022/04/25 04:06:17;;;;;;;;;;;;;;;13.25;63.41;99712.63;4918300;28;109447;-67
2022/04/25 04:08:43;;;;;;;;;;;;;;;13.23;63.38;99712.09;4919994;28;128473;-65
2022/04/25 04:11:09;;;;;;;;;;;;;;;13.23;63.32;99710.19;4919593;28;121602;-62
2022/04/25 04:13:35;;;;;;;;;;;;;;;13.23;63.37;99718.31;4918071;28;127246;-67
2022/04/25 04:16:03;;;;;;;;;;;;;;;13.22;63.29;99722.09;4934315;28;123335;-65
2022/04/25 04:18:29;;;;;;;;;;;;;;;13.21;63.21;99720.50;4921451;28;98327;-67
2022/04/25 04:20:55;;;;;;;;;;;;;;;13.20;63.21;99724.31;4934415;28;97868;-62
2022/04/25 04:23:20;;;;;;;;;;;;;;;13.20;63.30;99729.75;4937817;28;127903;-67
2022/04/25 04:25:46;;;;;;;;;;;;;;;13.18;63.23;99726.53;4926251;28;126203;-62
2022/04/25 04:28:15;;;;;;;;;;;;;;;13.19;63.13;99732.72;4920311;28;127543;-62
2022/04/25 04:30:43;;;;;;;;;;;;;;;13.18;63.30;99734.63;4921451;28;97984;-62
2022/04/25 04:33:09;;;;;;;;;;;;;;;13.18;63.08;99736.53;4921595;28;98791;-62
2022/04/25 04:38:20;;;;;;;;;;;;;;;13.17;63.23;99746.56;4919495;28;97949;-65
2022/04/25 04:40:46;;;;;;;;;;;;;;;13.17;63.16;99751.97;4919517;28;122905;-62
2022/04/25 04:43:11;;;;;;;;;;;;;;;13.18;63.48;99752.78;4919078;28;128185;-62
2022/04/25 04:45:38;;;;;;;;;;;;;;;13.18;63.40;99763.59;4919370;28;127108;-61
2022/04/25 04:48:04;;;;;;;;;;;;;;;13.17;63.19;99757.41;4930394;28;113758;-67
2022/04/25 04:50:30;;;;;;;;;;;;;;;13.19;63.15;99762.50;4915502;28;121277;-61
2022/04/25 04:52:57;;;;;;;;;;;;;;;13.20;63.09;99772.22;4916764;28;98530;-66
2022/04/25 04:55:23;;;;;;;;;;;;;;;13.21;63.11;99766.50;4917597;28;98522;-65
2022/04/25 04:57:50;;;;;;;;;;;;;;;13.25;63.09;99772.16;4916579;28;98154;-66
2022/04/25 05:00:16;;;;;;;;;;;;;;;13.26;62.99;99768.34;4916178;28;97969;-62
2022/04/25 05:02:43;;;;;;;;;;;;;;;13.29;62.58;99777.78;4916278;28;98351;-62
2022/04/25 05:05:09;;;;;;;;;;;;;;;13.33;62.93;99773.38;4916760;28;98933;-62
2022/04/25 05:07:35;;;;;;;;;;;;;;;13.37;62.84;99785.19;4917004;28;98046;-65
2022/04/25 05:10:06;;;;;;;;;;;;;;;13.43;62.56;99790.16;4915240;28;121583;-62
2022/04/25 05:12:52;;;;;;;;;;;;;;;13.49;62.54;99783.56;4919856;28;98411;-62
2022/04/25 05:15:19;;;;;;;;;;;;;;;13.57;62.41;99782.06;4920504;28;98245;-62
2022/04/25 05:17:48;;;;;;;;;;;;;;;13.64;62.36;99792.47;4920568;28;98056;-62
2022/04/25 05:20:14;;;;;;;;;;;;;;;13.70;62.06;99785.81;4921193;28;98002;-62
2022/04/25 05:22:44;;;;;;;;;;;;;;;13.74;62.02;99789.53;4919526;28;128869;-65
2022/04/25 05:25:12;;;;;;;;;;;;;;;13.79;61.99;99802.94;4920397;28;99253;-66
2022/04/25 05:27:38;;;;;;;;;;;;;;;13.87;61.87;99801.44;4911163;28;98659;-66
2022/04/25 05:30:05;;;;;;;;;;;;;;;13.93;62.05;99808.34;4906444;28;97850;-62
2022/04/25 05:32:41;;;;;;;;;;;;;;;14.00;61.91;99817.66;4918802;28;128302;-63
2022/04/25 05:35:08;;;;;;;;;;;;;;;14.07;61.62;99811.84;4919630;28;126114;-62
2022/04/25 05:37:34;;;;;;;;;;;;;;;14.13;61.53;99809.78;4918434;28;124650;-65
2022/04/25 05:39:59;;;;;;;;;;;;;;;14.20;61.46;99815.59;4918256;28;122748;-66
2022/04/25 05:42:25;;;;;;;;;;;;;;;14.28;61.26;99827.63;4918776;28;128635;-62
2022/04/25 05:44:51;;;;;;;;;;;;;;;14.33;61.49;99825.56;4918924;28;127919;-65
2022/04/25 05:47:17;;;;;;;;;;;;;;;14.38;61.17;99833.59;4932974;28;126410;-62
2022/04/25 05:52:28;;;;;;;;;;;;;;;14.49;61.37;99840.41;4929785;28;97892;-62
2022/04/25 05:54:54;;;;;;;;;;;;;;;14.54;60.81;99842.22;4919176;28;98974;-66
2022/04/25 05:57:20;;;;;;;;;;;;;;;14.59;60.92;99847.50;4930026;28;127511;-65
2022/04/25 05:59:46;;;;;;;;;;;;;;;14.65;61.07;99843.53;4919470;28;97761;-65
2022/04/25 06:02:13;;;;;;;;;;;;;;;14.69;61.01;99844.53;4918057;28;128000;-67
2022/04/25 06:04:40;;;;;;;;;;;;;;;14.77;60.82;99855.75;4919437;28;98720;-65
2022/04/25 06:07:06;;;;;;;;;;;;;;;14.87;60.66;99866.34;4918814;28;98350;-66
2022/04/25 06:09:32;;;;;;;;;;;;;;;15.00;60.44;99865.44;4919588;28;97754;-66
2022/04/25 06:11:58;;;;;;;;;;;;;;;15.04;60.52;99866.44;4918860;28;98987;-65
2022/04/25 06:14:23;;;;;;;;;;;;;;;15.17;60.04;99872.91;4919268;28;99418;-62
2022/04/25 06:16:49;;;;;;;;;;;;;;;15.25;60.19;99868.59;4918973;28;123446;-62
2022/04/25 06:19:15;;;;;;;;;;;;;;;15.33;59.72;99867.88;4920120;28;97896;-65
2022/04/25 06:21:41;;;;;;;;;;;;;;;15.40;59.69;99879.84;4921283;28;128710;-66
2022/04/25 06:24:07;;;;;;;;;;;;;;;15.46;59.51;99878.59;4918115;28;128167;-62
2022/04/25 06:26:34;;;;;;;;;;;;;;;15.53;59.41;99886.31;4918918;28;128551;-62
2022/04/25 06:29:00;;;;;;;;;;;;;;;15.56;59.37;99887.59;4918975;28;97932;-69
2022/04/25 06:31:26;;;;;;;;;;;;;;;15.59;59.74;99887.75;4918581;28;98724;-65
2022/04/25 06:33:52;;;;;;;;;;;;;;;15.60;59.50;99881.22;4919658;28;98720;-65
2022/04/25 06:36:18;;;;;;;;;;;;;;;15.65;59.42;99885.75;4920110;28;98479;-65
2022/04/25 06:38:44;;;;;;;;;;;;;;;15.77;59.35;99891.38;4918752;28;98047;-62
2022/04/25 06:41:10;;;;;;;;;;;;;;;15.87;58.89;99891.06;4919883;28;98039;-65
2022/04/25 06:43:36;;;;;;;;;;;;;;;15.92;58.74;99896.38;4918405;28;98171;-62
2022/04/25 06:46:03;;;;;;;;;;;;;;;15.87;58.97;99901.13;4920737;28;98312;-66
2022/04/25 06:48:29;;;;;;;;;;;;;;;15.86;59.17;99902.25;4921722;28;121104;-62
2022/04/25 06:50:55;;;;;;;;;;;;;;;15.84;59.31;99909.94;4921355;28;126589;-67
2022/04/25 06:53:21;;;;;;;;;;;;;;;15.79;59.08;99916.28;4921909;28;98653;-66
2022/04/25 06:55:47;;;;;;;;;;;;;;;15.77;59.16;99907.69;4926977;28;98536;-62
2022/04/25 06:58:13;;;;;;;;;;;;;;;15.70;59.60;99910.84;4927325;28;120760;-66
2022/04/25 07:00:39;;;;;;;;;;;;;;;15.63;59.51;99913.19;4921313;28;128199;-66
2022/04/25 07:03:05;;;;;;;;;;;;;;;15.56;59.53;99912.84;4919492;28;127381;-64
2022/04/25 07:05:31;;;;;;;;;;;;;;;15.50;59.47;99921.44;4922647;28;97869;-62
2022/04/25 07:07:57;;;;;;;;;;;;;;;15.46;59.95;99915.84;4921544;28;97979;-62
2022/04/25 07:10:23;;;;;;;;;;;;;;;15.45;59.71;99920.47;4920879;28;128828;-62
2022/04/25 07:12:49;;;;;;;;;;;;;;;15.45;59.46;99925.91;4920862;28;127395;-67
2022/04/25 07:15:15;;;;;;;;;;;;;;;15.47;59.84;99915.50;4919015;28;127130;-62
2022/04/25 07:17:41;;;;;;;;;;;;;;;15.49;59.46;99925.28;4921369;28;122011;-66
2022/04/25 07:20:07;;;;;;;;;;;;;;;15.55;59.67;99924.81;4925697;28;128294;-65
2022/04/25 07:30:47;;;;;;;;;;;;;;;15.75;59.27;99938.97;4918808;28;98267;-66
2022/04/25 07:33:13;;;;;;;;;;;;;;;15.72;59.14;99940.44;4918232;28;128422;-67
2022/04/25 07:35:39;;;;;;;;;;;;;;;15.69;59.62;99944.56;4921813;28;127612;-65
2022/04/25 07:38:05;;;;;;;;;;;;;;;15.64;59.41;99949.28;4921827;28;97936;-62
2022/04/25 07:40:31;;;;;;;;;;;;;;;15.61;59.66;99949.94;4921540;28;98935;-66
2022/04/25 07:42:57;;;;;;;;;;;;;;;15.60;59.40;99948.31;4919842;28;128183;-67
2022/04/25 07:45:23;;;;;;;;;;;;;;;15.60;59.52;99956.47;4921624;28;98409;-67
2022/04/25 07:47:49;;;;;;;;;;;;;;;15.58;59.62;99954.06;4921204;28;116402;-61
2022/04/25 07:50:16;;;;;;;;;;;;;;;15.58;59.61;99954.06;4920178;28;128830;-65
2022/04/25 07:52:42;;;;;;;;;;;;;;;15.63;59.48;99959.34;4921489;28;98701;-62
2022/04/25 07:55:08;;;;;;;;;;;;;;;15.66;59.55;99966.13;4919689;28;98453;-65
2022/04/25 07:57:35;;;;;;;;;;;;;;;15.71;59.37;99971.41;4935070;28;119583;-65
2022/04/25 08:00:04;;;;;;;;;;;;;;;15.74;59.43;99964.56;4920263;28;112597;-65
2022/04/25 08:02:30;;;;;;;;;;;;;;;15.76;59.02;99968.56;4921211;28;124069;-61
2022/04/25 08:04:56;;;;;;;;;;;;;;;15.82;58.96;99971.94;4920252;28;127526;-62
2022/04/25 08:07:23;;;;;;;;;;;;;;;15.88;58.80;99974.22;4920410;28;105263;-62
2022/04/25 08:09:49;;;;;;;;;;;;;;;15.92;59.03;99977.91;4922119;28;98575;-65
2022/04/25 08:17:59;;;;;;;;;;;;;;;16.03;58.93;99974.88;4918999;28;97971;-62
2022/04/25 08:20:28;;;;;;;;;;;;;;;16.12;58.57;99981.16;4924471;28;98219;-67
2022/04/25 08:22:54;;;;;;;;;;;;;;;16.15;58.48;99988.66;4921528;28;98314;-66
2022/04/25 08:25:20;;;;;;;;;;;;;;;16.11;58.79;99988.53;4921262;28;101288;-65
2022/04/25 08:27:46;;;;;;;;;;;;;;;16.08;58.79;99996.50;4910699;28;122562;-62
2022/04/25 08:30:12;;;;;;;;;;;;;;;16.06;58.63;99994.09;4901344;28;128267;-64
2022/04/25 08:32:38;;;;;;;;;;;;;;;16.07;58.77;100000.31;4900267;28;127763;-62
2022/04/25 08:35:04;;;;;;;;;;;;;;;16.16;58.39;99998.44;4912559;28;113118;-65
2022/04/25 08:37:30;;;;;;;;;;;;;;;16.31;58.31;100002.63;4920251;28;121360;-64
2022/04/25 08:39:56;;;;;;;;;;;;;;;16.36;57.92;100008.72;4919668;28;128505;-62
2022/04/25 08:42:22;;;;;;;;;;;;;;;16.48;57.92;100013.56;4919941;28;127678;-61
2022/04/25 08:44:52;;;;;;;;;;;;;;;16.65;57.72;100018.22;4921370;28;98253;-65
2022/04/25 08:47:18;;;;;;;;;;;;;;;16.82;57.31;100021.00;4921102;28;99189;-66
2022/04/25 08:49:44;;;;;;;;;;;;;;;16.87;57.24;100029.00;4918685;28;108307;-66
2022/04/25 08:52:11;;;;;;;;;;;;;;;16.94;57.28;100025.81;4918030;28;120636;-62
2022/04/25 08:54:37;;;;;;;;;;;;;;;17.29;56.60;100023.03;4917049;28;128131;-62
2022/04/25 08:57:03;;;;;;;;;;;;;;;17.31;56.75;100032.50;4917501;28;121803;-62
2022/04/25 08:59:31;;;;;;;;;;;;;;;17.45;56.77;100034.22;4918925;28;125646;-62
2022/04/25 09:01:57;;;;;;;;;;;;;;;17.53;56.53;100039.69;4918404;28;97856;-65
2022/04/25 09:04:23;;;;;;;;;;;;;;;17.58;56.49;100036.78;4920402;28;98366;-64
2022/04/25 09:06:54;;;;;;;;;;;;;;;17.79;56.31;100041.56;4920901;28;105109;-62
2022/04/25 09:09:20;;;;;;;;;;;;;;;18.12;55.69;100036.31;4919617;28;98367;-69
2022/04/25 09:14:32;;;;;;;;;;;;;;;18.20;56.00;100043.66;4918687;28;98303;-62
2022/04/25 09:16:58;;;;;;;;;;;;;;;18.28;56.00;100052.91;4918603;28;97942;-62
2022/04/25 09:19:24;;;;;;;;;;;;;;;18.44;55.88;100048.50;4934675;28;123907;-62
2022/04/25 09:21:50;;;;;;;;;;;;;;;18.82;55.41;100055.81;4919892;28;119660;-62
2022/04/25 09:24:20;;;;;;;;;;;;;;;18.96;55.30;100048.16;4917060;28;126323;-62
2022/04/25 09:26:47;;;;;;;;;;;;;;;18.93;55.47;100058.97;4918821;28;97854;-65
2022/04/25 09:29:13;;;;;;;;;;;;;;;18.87;55.75;100058.38;4898754;28;98506;-62
2022/04/25 09:31:47;;;;;;;;;;;;;;;18.96;55.92;100053.63;4904650;28;127154;-65
2022/04/25 09:34:14;;;;;;;;;;;;;;;19.23;55.48;100055.03;4919629;28;98141;-62
2022/04/25 09:36:47;;;;;;;;;;;;;;;19.30;55.54;100051.75;4920273;28;97873;-62
2022/04/25 09:39:31;;;;;;;;;;;;;;;19.38;55.48;100061.81;4919811;28;98340;-62
2022/04/25 09:41:57;;;;;;;;;;;;;;;19.66;55.20;100053.03;4919319;28;98467;-62
2022/04/25 09:44:23;;;;;;;;;;;;;;;19.81;55.36;100055.13;4918741;28;122675;-62
2022/04/25 09:46:49;;;;;;;;;;;;;;;19.94;55.28;100064.13;4918761;28;97907;-62
2022/04/25 09:49:20;;;;;;;;;;;;;;;19.93;55.53;100062.56;4918445;28;128398;-67
2022/04/25 09:52:04;;;;;;;;;;;;;;;19.96;55.33;100065.38;4919710;28;98368;-66
2022/04/25 09:54:30;;;;;;;;;;;;;;;21.07;53.68;100066.16;4918853;28;122709;-62
2022/04/25 09:56:56;;;;;;;;;;;;;;;20.81;54.30;100067.34;4919092;28;110187;-65
2022/04/25 09:59:22;;;;;;;;;;;;;;;20.92;54.30;100066.88;4918714;28;99022;-62
2022/04/25 10:02:04;;;;;;;;;;;;;;;21.56;53.43;100063.22;4919078;28;98165;-67
2022/04/25 10:04:38;;;;;;;;;;;;;;;24.93;47.85;100066.16;4920272;28;98017;-62
2022/04/25 10:07:05;;;;;;;;;;;;;;;28.24;43.83;100082.63;4920474;28;98124;-67
2022/04/25 10:09:33;;;;;;;;;;;;;;;27.31;46.90;100093.50;4919258;28;98815;-65
2022/04/25 10:11:59;;;;;;;;;;;;;;;28.65;45.98;100084.97;4925742;28;127382;-65
2022/04/25 10:14:26;;;;;;;;;;;;;;;30.32;44.14;100094.47;4917922;28;97905;-66
2022/04/25 10:16:52;;;;;;;;;;;;;;;30.55;44.71;100094.66;4919758;28;97823;-66
2022/04/25 10:19:18;;;;;;;;;;;;;;;30.04;46.37;100096.25;4913843;28;129715;-67
2022/04/25 10:21:44;;;;;;;;;;;;;;;28.94;48.39;100083.72;4921847;28;128573;-65
2022/04/25 10:24:10;;;;;;;;;;;;;;;27.97;50.15;100088.53;4936767;28;126517;-65
2022/04/25 10:26:36;;;;;;;;;;;;;;;27.14;51.09;100079.22;4922435;28;122640;-65
2022/04/25 10:29:10;;;;;;;;;;;;;;;26.42;51.81;100082.72;4911364;28;125729;-62
2022/04/25 10:31:41;;;;;;;;;;;;;;;29.95;45.25;100082.06;4920516;28;98581;-67
2022/04/25 10:34:07;;;;;;;;;;;;;;;30.22;45.11;100089.78;4920064;28;98335;-65
2022/04/25 10:36:39;;;;;;;;;;;;;;;29.38;46.77;100087.13;4936677;28;98053;-63
2022/04/25 10:39:22;;;;;;;;;;;;;;;28.62;48.20;100089.34;4922387;28;98962;-66
2022/04/25 10:44:42;;;;;;;;;;;;;;;30.78;44.54;100096.06;4922558;28;97916;-62
2022/04/25 10:47:14;;;;;;;;;;;;;;;30.29;45.87;100090.53;4923249;28;98027;-66
2022/04/25 10:49:44;;;;;;;;;;;;;;;29.13;48.03;100101.13;4921875;28;98282;-66
2022/04/25 10:52:37;;;;;;;;;;;;;;;28.43;48.52;100100.84;4922414;28;98893;-62
2022/04/25 10:55:11;;;;;;;;;;;;;;;27.71;49.06;100102.75;4922627;28;98417;-66
2022/04/25 10:57:37;;;;;;;;;;;;;;;29.59;45.33;100098.97;4921698;28;98121;-67
2022/04/25 11:00:06;;;;;;;;;;;;;;;31.37;43.06;100114.47;4921315;28;127583;-63
2022/04/25 11:02:32;;;;;;;;;;;;;;;30.62;44.43;100110.50;4934996;28;113677;-62
2022/04/25 11:05:10;;;;;;;;;;;;;;;30.43;45.09;100108.28;4921484;28;127609;-66
2022/04/25 11:07:37;;;;;;;;;;;;;;;31.07;44.22;100109.63;4921539;28;97842;-63
2022/04/25 11:10:07;;;;;;;;;;;;;;;30.83;44.65;100108.72;4936207;28;99305;-62
2022/04/25 11:12:58;;;;;;;;;;;;;;;30.21;45.96;100107.66;4920508;28;119015;-62
2022/04/25 11:15:42;;;;;;;;;;;;;;;29.35;46.77;100103.38;4922219;28;98372;-65
2022/04/25 11:18:28;;;;;;;;;;;;;;;28.72;47.36;100113.47;4921546;28;97847;-62
2022/04/25 11:20:57;;;;;;;;;;;;;;;29.83;44.93;100115.88;4936703;28;99027;-63
2022/04/25 11:23:28;;;;;;;;;;;;;;;30.80;43.99;100118.66;4940604;28;99104;-63
2022/04/25 11:25:55;;;;;;;;;;;;;;;31.89;42.51;100128.88;4941652;28;98403;-63
2022/04/25 11:28:22;;;;;;;;;;;;;;;32.65;42.40;100125.66;4925327;28;98014;-66
2022/04/25 11:31:13;;;;;;;;;;;;;;;31.99;43.79;100125.16;4921591;28;98397;-66
2022/04/25 11:33:49;;;;;;;;;;;;;;;31.24;45.11;100128.91;4920758;28;99558;-68
2022/04/25 11:36:15;;;;;;;;;;;;;;;30.37;46.19;100134.94;4921591;28;126875;-67
2022/04/25 11:41:30;;;;;;;;;;;;;;;30.32;44.88;100133.38;4918741;28;98298;-63
2022/04/25 11:43:57;;;;;;;;;;;;;;;30.35;45.05;100142.91;4920498;28;98276;-62
2022/04/25 11:46:24;;;;;;;;;;;;;;;29.50;46.06;100137.41;4937110;28;97974;-62
2022/04/25 11:48:50;;;;;;;;;;;;;;;29.33;46.09;100141.06;4920979;28;97819;-62
2022/04/25 11:51:29;;;;;;;;;;;;;;;29.16;45.61;100144.69;4921752;28;98459;-62
2022/04/25 11:54:00;;;;;;;;;;;;;;;29.94;44.22;100151.88;4920010;28;121557;-63
2022/04/25 11:56:29;;;;;;;;;;;;;;;30.79;42.99;100144.91;4932304;28;98224;-63
2022/04/25 11:58:55;;;;;;;;;;;;;;;30.23;44.31;100144.97;4921086;28;97952;-63
2022/04/25 12:01:47;;;;;;;;;;;;;;;29.60;45.38;100152.50;4921267;28;98282;-63
2022/04/25 12:04:23;;;;;;;;;;;;;;;29.04;45.92;100152.28;4920361;28;98895;-63
2022/04/25 12:06:55;;;;;;;;;;;;;;;28.69;45.61;100150.34;4921392;28;98306;-66
2022/04/25 12:15:37;;;;;;;;;;;;;;;28.96;45.13;100149.88;4918254;28;98193;-67
2022/04/25 12:18:20;;;;;;;;;;;;;;;29.43;43.89;100145.00;4933156;28;98586;-66
2022/04/25 12:20:49;;;;;;;;;;;;;;;29.65;44.02;100157.63;4934026;28;97961;-67
2022/04/25 12:23:48;;;;;;;;;;;;;;;29.06;45.04;100157.41;4893691;28;98104;-66
2022/04/25 12:26:19;;;;;;;;;;;;;;;28.79;45.17;100157.03;4901007;28;98430;-67
2022/04/25 12:28:59;;;;;;;;;;;;;;;28.45;45.17;100157.44;4909461;28;97790;-65
2022/04/25 12:31:25;;;;;;;;;;;;;;;27.99;45.63;100154.63;4921334;28;97835;-63
2022/04/25 12:33:51;;;;;;;;;;;;;;;27.74;45.50;100162.88;4919970;28;99058;-63
2022/04/25 12:36:23;;;;;;;;;;;;;;;28.13;44.81;100162.94;4920542;28;128211;-66
2022/04/25 12:39:09;;;;;;;;;;;;;;;27.64;44.98;100159.66;4920805;28;98208;-63
2022/04/25 12:41:36;;;;;;;;;;;;;;;27.49;45.37;100157.22;4921429;28;97917;-67
2022/04/25 12:44:11;;;;;;;;;;;;;;;28.12;44.20;100167.69;4919422;28;98305;-66
2022/04/25 12:46:48;;;;;;;;;;;;;;;27.50;45.23;100165.13;4920980;28;97846;-63
2022/04/25 12:49:33;;;;;;;;;;;;;;;27.28;45.36;100166.22;4920289;28;98110;-67
2022/04/25 12:51:59;;;;;;;;;;;;;;;27.22;45.11;100168.56;4920403;28;97970;-67
2022/04/25 12:54:32;;;;;;;;;;;;;;;26.84;45.66;100167.09;4921088;28;98124;-63
2022/04/25 12:57:21;;;;;;;;;;;;;;;26.49;45.88;100165.69;4933293;28;98342;-67
2022/04/25 12:59:58;;;;;;;;;;;;;;;26.49;45.41;100175.91;4921173;28;97732;-63
2022/04/25 13:02:37;;;;;;;;;;;;;;;26.59;44.84;100173.25;4934626;28;97950;-68
2022/04/25 13:05:09;;;;;;;;;;;;;;;26.44;45.20;100175.06;4920397;28;99055;-63
2022/04/25 13:07:39;;;;;;;;;;;;;;;26.28;45.29;100179.25;4919557;28;99122;-66
2022/04/25 13:10:09;;;;;;;;;;;;;;;26.11;45.73;100173.19;4920858;28;98077;-66
2022/04/25 13:12:37;;;;;;;;;;;;;;;25.86;46.17;100178.47;4920030;28;106438;-63
2022/04/25 13:15:04;;;;;;;;;;;;;;;25.89;45.89;100174.94;4920190;28;98074;-63
2022/04/25 13:17:30;;;;;;;;;;;;;;;26.15;45.63;100178.75;4919752;28;121933;-65
2022/04/25 13:19:56;;;;;;;;;;;;;;;25.99;46.29;100183.72;4926194;28;98600;-64
2022/04/25 13:22:22;;;;;;;;;;;;;;;25.87;46.34;100177.28;4939080;28;121872;-66